KVJI/VJI METAR and TAF weather

Enter ICAO airport designator
Station Type Date Time Source
KVJI METAR 2020/02/21 02:35 UTC NOAA

KVJI 210235Z AUTO 06003KT 10SM OVC080 M01/M06 A3036 RMK AO2 T10101065


Station Type Date Time Source
KVJI Decoded METAR 2020/02/21 02:35 UTC NOAA

Abingdon, VA, United States (KVJI) 36-41N 082-02W
Feb 20, 2020 - 09:35 PM EST / 2020.02.21 0235 UTC
Wind: from the ENE (060 degrees) at 3 MPH (3 KT):0
Visibility: 10 mile(s):0
Sky conditions: overcast
Temperature: 30.2 F (-1.0 C)
Dew Point: 20.3 F (-6.5 C)
Relative Humidity: 66%
Pressure (altimeter): 30.36 in. Hg (1028 hPa)
ob: KVJI 210235Z AUTO 06003KT 10SM OVC080 M01/M06 A3036 RMK AO2 T10101065
cycle: 2

Station Type Date Time Source
KVJI TAF UTC NOAA

Error!

Example: see airport list